sensor_id;sensor_type;location;lat;lon;timestamp;P1;durP1;ratioP1;P2;durP2;ratioP2
56770;SDS011;42641;59.794;17.616;2024-02-26T00:00:29;8.17;;;6.43;;
56770;SDS011;42641;59.794;17.616;2024-02-26T00:02:55;17.20;;;7.63;;
56770;SDS011;42641;59.794;17.616;2024-02-26T00:05:22;10.23;;;5.90;;
56770;SDS011;42641;59.794;17.616;2024-02-26T00:07:48;8.17;;;5.70;;
56770;SDS011;42641;59.794;17.616;2024-02-26T00:10:15;11.50;;;6.67;;
56770;SDS011;42641;59.794;17.616;2024-02-26T00:12:41;13.13;;;7.27;;
56770;SDS011;42641;59.794;17.616;2024-02-26T00:15:07;9.70;;;5.90;;
56770;SDS011;42641;59.794;17.616;2024-02-26T00:17:35;11.17;;;6.83;;
56770;SDS011;42641;59.794;17.616;2024-02-26T00:20:04;12.27;;;7.63;;
56770;SDS011;42641;59.794;17.616;2024-02-26T00:22:34;11.27;;;7.50;;
56770;SDS011;42641;59.794;17.616;2024-02-26T00:25:01;12.27;;;7.30;;
56770;SDS011;42641;59.794;17.616;2024-02-26T00:27:27;12.47;;;7.20;;
56770;SDS011;42641;59.794;17.616;2024-02-26T00:29:53;12.90;;;7.73;;
56770;SDS011;42641;59.794;17.616;2024-02-26T00:32:20;14.73;;;7.63;;
56770;SDS011;42641;59.794;17.616;2024-02-26T00:34:46;12.57;;;6.80;;
56770;SDS011;42641;59.794;17.616;2024-02-26T00:37:12;14.43;;;8.03;;
56770;SDS011;42641;59.794;17.616;2024-02-26T00:39:39;10.23;;;6.20;;
56770;SDS011;42641;59.794;17.616;2024-02-26T00:42:05;10.73;;;6.10;;
56770;SDS011;42641;59.794;17.616;2024-02-26T00:44:32;7.63;;;5.00;;
56770;SDS011;42641;59.794;17.616;2024-02-26T00:46:58;8.27;;;5.90;;
56770;SDS011;42641;59.794;17.616;2024-02-26T00:49:24;10.57;;;6.80;;
56770;SDS011;42641;59.794;17.616;2024-02-26T00:51:51;9.63;;;6.33;;
56770;SDS011;42641;59.794;17.616;2024-02-26T00:54:17;10.27;;;7.20;;
56770;SDS011;42641;59.794;17.616;2024-02-26T00:56:43;10.10;;;6.53;;
56770;SDS011;42641;59.794;17.616;2024-02-26T00:59:10;16.43;;;8.10;;
56770;SDS011;42641;59.794;17.616;2024-02-26T01:01:36;11.00;;;6.43;;
56770;SDS011;42641;59.794;17.616;2024-02-26T01:04:03;9.27;;;6.40;;
56770;SDS011;42641;59.794;17.616;2024-02-26T01:06:29;10.70;;;6.27;;
56770;SDS011;42641;59.794;17.616;2024-02-26T01:08:56;11.43;;;7.20;;
56770;SDS011;42641;59.794;17.616;2024-02-26T01:11:22;12.00;;;6.33;;
56770;SDS011;42641;59.794;17.616;2024-02-26T01:13:48;8.83;;;6.07;;
56770;SDS011;42641;59.794;17.616;2024-02-26T01:16:19;14.43;;;6.87;;
56770;SDS011;42641;59.794;17.616;2024-02-26T01:18:45;10.50;;;6.10;;
56770;SDS011;42641;59.794;17.616;2024-02-26T01:21:11;8.83;;;5.70;;
56770;SDS011;42641;59.794;17.616;2024-02-26T01:23:38;10.80;;;5.57;;
56770;SDS011;42641;59.794;17.616;2024-02-26T01:26:04;7.67;;;5.53;;
56770;SDS011;42641;59.794;17.616;2024-02-26T01:28:30;6.80;;;5.70;;
56770;SDS011;42641;59.794;17.616;2024-02-26T01:30:57;9.30;;;6.00;;
56770;SDS011;42641;59.794;17.616;2024-02-26T01:33:25;10.53;;;6.53;;
56770;SDS011;42641;59.794;17.616;2024-02-26T01:35:52;9.27;;;5.67;;
56770;SDS011;42641;59.794;17.616;2024-02-26T01:38:18;7.83;;;5.67;;
56770;SDS011;42641;59.794;17.616;2024-02-26T01:40:45;9.03;;;6.27;;
56770;SDS011;42641;59.794;17.616;2024-02-26T01:43:11;6.33;;;5.13;;
56770;SDS011;42641;59.794;17.616;2024-02-26T01:45:37;9.33;;;6.17;;
56770;SDS011;42641;59.794;17.616;2024-02-26T01:48:04;9.27;;;6.40;;
56770;SDS011;42641;59.794;17.616;2024-02-26T01:50:31;11.47;;;7.07;;
56770;SDS011;42641;59.794;17.616;2024-02-26T01:53:00;12.13;;;7.23;;
56770;SDS011;42641;59.794;17.616;2024-02-26T01:55:27;14.57;;;7.63;;
56770;SDS011;42641;59.794;17.616;2024-02-26T01:57:53;11.53;;;8.07;;
56770;SDS011;42641;59.794;17.616;2024-02-26T02:00:20;12.77;;;7.33;;
56770;SDS011;42641;59.794;17.616;2024-02-26T02:02:48;13.43;;;8.00;;
56770;SDS011;42641;59.794;17.616;2024-02-26T02:05:15;16.53;;;7.87;;
56770;SDS011;42641;59.794;17.616;2024-02-26T02:07:43;17.27;;;8.90;;
56770;SDS011;42641;59.794;17.616;2024-02-26T02:10:10;15.00;;;9.07;;
56770;SDS011;42641;59.794;17.616;2024-02-26T02:12:37;20.10;;;9.10;;
56770;SDS011;42641;59.794;17.616;2024-02-26T02:15:05;14.93;;;7.80;;
56770;SDS011;42641;59.794;17.616;2024-02-26T02:17:32;10.47;;;6.70;;
56770;SDS011;42641;59.794;17.616;2024-02-26T02:19:59;11.17;;;7.20;;
56770;SDS011;42641;59.794;17.616;2024-02-26T02:22:25;10.90;;;7.57;;
56770;SDS011;42641;59.794;17.616;2024-02-26T02:24:52;9.30;;;6.93;;
56770;SDS011;42641;59.794;17.616;2024-02-26T02:27:19;8.37;;;6.17;;
56770;SDS011;42641;59.794;17.616;2024-02-26T02:29:46;7.90;;;4.87;;
56770;SDS011;42641;59.794;17.616;2024-02-26T02:32:13;8.40;;;6.63;;
56770;SDS011;42641;59.794;17.616;2024-02-26T02:34:41;10.77;;;6.57;;
56770;SDS011;42641;59.794;17.616;2024-02-26T02:37:08;9.80;;;6.83;;
56770;SDS011;42641;59.794;17.616;2024-02-26T02:39:34;14.30;;;8.10;;
56770;SDS011;42641;59.794;17.616;2024-02-26T02:42:01;10.27;;;7.53;;
56770;SDS011;42641;59.794;17.616;2024-02-26T02:44:27;12.43;;;8.20;;
56770;SDS011;42641;59.794;17.616;2024-02-26T02:46:53;8.23;;;5.90;;
56770;SDS011;42641;59.794;17.616;2024-02-26T02:49:20;9.27;;;6.37;;
56770;SDS011;42641;59.794;17.616;2024-02-26T02:51:46;9.90;;;6.40;;
56770;SDS011;42641;59.794;17.616;2024-02-26T02:54:12;10.67;;;6.57;;
56770;SDS011;42641;59.794;17.616;2024-02-26T02:56:39;14.90;;;8.57;;
56770;SDS011;42641;59.794;17.616;2024-02-26T02:59:05;10.27;;;7.50;;
56770;SDS011;42641;59.794;17.616;2024-02-26T03:01:31;12.70;;;8.30;;
56770;SDS011;42641;59.794;17.616;2024-02-26T03:03:57;12.17;;;7.60;;
56770;SDS011;42641;59.794;17.616;2024-02-26T03:06:24;12.17;;;7.43;;
56770;SDS011;42641;59.794;17.616;2024-02-26T03:08:53;11.20;;;7.63;;
56770;SDS011;42641;59.794;17.616;2024-02-26T03:11:20;16.40;;;10.07;;
56770;SDS011;42641;59.794;17.616;2024-02-26T03:13:46;15.47;;;8.90;;
56770;SDS011;42641;59.794;17.616;2024-02-26T03:16:13;12.50;;;8.53;;
56770;SDS011;42641;59.794;17.616;2024-02-26T03:18:39;13.80;;;7.80;;
56770;SDS011;42641;59.794;17.616;2024-02-26T03:21:07;12.20;;;8.20;;
56770;SDS011;42641;59.794;17.616;2024-02-26T03:23:34;11.07;;;8.33;;
56770;SDS011;42641;59.794;17.616;2024-02-26T03:26:03;13.63;;;7.77;;
56770;SDS011;42641;59.794;17.616;2024-02-26T03:28:30;10.57;;;8.17;;
56770;SDS011;42641;59.794;17.616;2024-02-26T03:30:59;10.90;;;7.03;;
56770;SDS011;42641;59.794;17.616;2024-02-26T03:33:27;8.10;;;6.80;;
56770;SDS011;42641;59.794;17.616;2024-02-26T03:35:53;12.63;;;7.63;;
56770;SDS011;42641;59.794;17.616;2024-02-26T03:38:20;12.20;;;7.30;;
56770;SDS011;42641;59.794;17.616;2024-02-26T03:40:46;10.83;;;8.00;;
56770;SDS011;42641;59.794;17.616;2024-02-26T03:43:12;11.47;;;7.80;;
56770;SDS011;42641;59.794;17.616;2024-02-26T03:45:39;12.50;;;7.93;;
56770;SDS011;42641;59.794;17.616;2024-02-26T03:48:05;13.77;;;8.37;;
56770;SDS011;42641;59.794;17.616;2024-02-26T03:50:32;15.67;;;9.37;;
56770;SDS011;42641;59.794;17.616;2024-02-26T03:52:59;14.13;;;9.77;;
56770;SDS011;42641;59.794;17.616;2024-02-26T03:55:25;16.43;;;10.00;;
56770;SDS011;42641;59.794;17.616;2024-02-26T03:57:51;20.97;;;10.67;;
56770;SDS011;42641;59.794;17.616;2024-02-26T04:00:18;18.33;;;10.30;;
56770;SDS011;42641;59.794;17.616;2024-02-26T04:02:46;15.47;;;10.63;;
56770;SDS011;42641;59.794;17.616;2024-02-26T04:05:14;24.13;;;12.03;;
56770;SDS011;42641;59.794;17.616;2024-02-26T04:07:41;17.73;;;11.03;;
56770;SDS011;42641;59.794;17.616;2024-02-26T04:10:10;23.40;;;11.57;;
56770;SDS011;42641;59.794;17.616;2024-02-26T04:12:40;18.50;;;12.00;;
56770;SDS011;42641;59.794;17.616;2024-02-26T04:15:08;19.37;;;11.67;;
56770;SDS011;42641;59.794;17.616;2024-02-26T04:17:36;19.50;;;11.37;;
56770;SDS011;42641;59.794;17.616;2024-02-26T04:20:03;19.17;;;11.70;;
56770;SDS011;42641;59.794;17.616;2024-02-26T04:22:32;22.33;;;13.37;;
56770;SDS011;42641;59.794;17.616;2024-02-26T04:24:58;23.27;;;12.13;;
56770;SDS011;42641;59.794;17.616;2024-02-26T04:27:25;19.43;;;12.30;;
56770;SDS011;42641;59.794;17.616;2024-02-26T04:29:51;25.37;;;13.10;;
56770;SDS011;42641;59.794;17.616;2024-02-26T04:32:18;22.00;;;13.20;;
56770;SDS011;42641;59.794;17.616;2024-02-26T04:34:44;16.63;;;11.47;;
56770;SDS011;42641;59.794;17.616;2024-02-26T04:37:11;18.67;;;11.13;;
56770;SDS011;42641;59.794;17.616;2024-02-26T04:39:37;20.97;;;12.13;;
56770;SDS011;42641;59.794;17.616;2024-02-26T04:42:04;17.27;;;11.20;;
56770;SDS011;42641;59.794;17.616;2024-02-26T04:44:30;15.97;;;10.37;;
56770;SDS011;42641;59.794;17.616;2024-02-26T04:46:56;19.10;;;11.63;;
56770;SDS011;42641;59.794;17.616;2024-02-26T04:49:23;19.33;;;11.70;;
56770;SDS011;42641;59.794;17.616;2024-02-26T04:51:49;20.80;;;11.90;;
56770;SDS011;42641;59.794;17.616;2024-02-26T04:54:16;19.07;;;12.03;;
56770;SDS011;42641;59.794;17.616;2024-02-26T04:56:43;17.87;;;11.73;;
56770;SDS011;42641;59.794;17.616;2024-02-26T04:59:09;17.63;;;10.90;;
56770;SDS011;42641;59.794;17.616;2024-02-26T05:01:36;16.60;;;11.10;;
56770;SDS011;42641;59.794;17.616;2024-02-26T05:04:03;18.10;;;11.00;;
56770;SDS011;42641;59.794;17.616;2024-02-26T05:06:29;20.77;;;11.83;;
56770;SDS011;42641;59.794;17.616;2024-02-26T05:08:56;15.57;;;10.30;;
56770;SDS011;42641;59.794;17.616;2024-02-26T05:11:23;15.10;;;10.00;;
56770;SDS011;42641;59.794;17.616;2024-02-26T05:13:49;16.63;;;10.10;;
56770;SDS011;42641;59.794;17.616;2024-02-26T05:16:16;22.63;;;11.20;;
56770;SDS011;42641;59.794;17.616;2024-02-26T05:18:42;15.63;;;10.07;;
56770;SDS011;42641;59.794;17.616;2024-02-26T05:21:08;13.77;;;9.67;;
56770;SDS011;42641;59.794;17.616;2024-02-26T05:23:35;13.00;;;9.77;;
56770;SDS011;42641;59.794;17.616;2024-02-26T05:26:01;19.23;;;11.60;;
56770;SDS011;42641;59.794;17.616;2024-02-26T05:28:28;14.63;;;9.73;;
56770;SDS011;42641;59.794;17.616;2024-02-26T05:30:54;12.33;;;8.67;;
56770;SDS011;42641;59.794;17.616;2024-02-26T05:33:21;12.33;;;9.37;;
56770;SDS011;42641;59.794;17.616;2024-02-26T05:35:49;15.00;;;10.33;;
56770;SDS011;42641;59.794;17.616;2024-02-26T05:38:15;17.80;;;10.93;;
56770;SDS011;42641;59.794;17.616;2024-02-26T05:40:41;15.30;;;9.83;;
56770;SDS011;42641;59.794;17.616;2024-02-26T05:43:08;18.17;;;11.93;;
56770;SDS011;42641;59.794;17.616;2024-02-26T05:45:34;27.53;;;13.83;;
56770;SDS011;42641;59.794;17.616;2024-02-26T05:48:00;22.67;;;13.70;;
56770;SDS011;42641;59.794;17.616;2024-02-26T05:50:27;29.50;;;14.43;;
56770;SDS011;42641;59.794;17.616;2024-02-26T05:52:53;33.23;;;15.33;;
56770;SDS011;42641;59.794;17.616;2024-02-26T05:55:19;26.57;;;15.13;;
56770;SDS011;42641;59.794;17.616;2024-02-26T05:57:46;32.47;;;16.07;;
56770;SDS011;42641;59.794;17.616;2024-02-26T06:00:12;33.90;;;16.63;;
56770;SDS011;42641;59.794;17.616;2024-02-26T06:02:39;31.47;;;16.47;;
56770;SDS011;42641;59.794;17.616;2024-02-26T06:05:06;28.67;;;17.27;;
56770;SDS011;42641;59.794;17.616;2024-02-26T06:07:34;25.17;;;16.13;;
56770;SDS011;42641;59.794;17.616;2024-02-26T06:10:01;28.20;;;15.47;;
56770;SDS011;42641;59.794;17.616;2024-02-26T06:12:28;25.80;;;16.37;;
56770;SDS011;42641;59.794;17.616;2024-02-26T06:14:56;24.47;;;14.13;;
56770;SDS011;42641;59.794;17.616;2024-02-26T06:17:23;27.77;;;14.33;;
56770;SDS011;42641;59.794;17.616;2024-02-26T06:19:50;22.40;;;14.33;;
56770;SDS011;42641;59.794;17.616;2024-02-26T06:22:17;25.50;;;14.90;;
56770;SDS011;42641;59.794;17.616;2024-02-26T06:24:43;23.20;;;13.67;;
56770;SDS011;42641;59.794;17.616;2024-02-26T06:27:09;27.10;;;15.30;;
56770;SDS011;42641;59.794;17.616;2024-02-26T06:29:36;20.40;;;12.87;;
56770;SDS011;42641;59.794;17.616;2024-02-26T06:32:02;27.43;;;14.70;;
56770;SDS011;42641;59.794;17.616;2024-02-26T06:34:29;19.03;;;13.23;;
56770;SDS011;42641;59.794;17.616;2024-02-26T06:36:55;15.93;;;11.60;;
56770;SDS011;42641;59.794;17.616;2024-02-26T06:39:21;22.10;;;13.33;;
56770;SDS011;42641;59.794;17.616;2024-02-26T06:41:48;18.30;;;12.00;;
56770;SDS011;42641;59.794;17.616;2024-02-26T06:44:14;21.80;;;12.70;;
56770;SDS011;42641;59.794;17.616;2024-02-26T06:46:41;13.40;;;10.03;;
56770;SDS011;42641;59.794;17.616;2024-02-26T06:49:07;12.90;;;9.93;;
56770;SDS011;42641;59.794;17.616;2024-02-26T06:51:33;16.00;;;10.60;;
56770;SDS011;42641;59.794;17.616;2024-02-26T06:54:00;15.67;;;10.60;;
56770;SDS011;42641;59.794;17.616;2024-02-26T06:56:26;13.97;;;10.43;;
56770;SDS011;42641;59.794;17.616;2024-02-26T06:58:53;18.90;;;11.80;;
56770;SDS011;42641;59.794;17.616;2024-02-26T07:01:19;13.47;;;9.43;;
56770;SDS011;42641;59.794;17.616;2024-02-26T07:03:45;15.80;;;10.30;;
56770;SDS011;42641;59.794;17.616;2024-02-26T07:06:12;16.13;;;10.70;;
56770;SDS011;42641;59.794;17.616;2024-02-26T07:08:39;14.17;;;9.57;;
56770;SDS011;42641;59.794;17.616;2024-02-26T07:11:09;12.90;;;9.17;;
56770;SDS011;42641;59.794;17.616;2024-02-26T07:13:36;17.17;;;9.87;;
56770;SDS011;42641;59.794;17.616;2024-02-26T07:16:03;17.63;;;9.17;;
56770;SDS011;42641;59.794;17.616;2024-02-26T07:18:31;13.80;;;9.30;;
56770;SDS011;42641;59.794;17.616;2024-02-26T07:20:58;13.50;;;8.13;;
56770;SDS011;42641;59.794;17.616;2024-02-26T07:23:28;13.60;;;8.43;;
56770;SDS011;42641;59.794;17.616;2024-02-26T07:25:54;10.83;;;7.77;;
56770;SDS011;42641;59.794;17.616;2024-02-26T07:28:20;9.73;;;7.30;;
56770;SDS011;42641;59.794;17.616;2024-02-26T07:30:47;10.90;;;7.07;;
56770;SDS011;42641;59.794;17.616;2024-02-26T07:33:13;9.43;;;7.17;;
56770;SDS011;42641;59.794;17.616;2024-02-26T07:35:39;11.70;;;7.87;;
56770;SDS011;42641;59.794;17.616;2024-02-26T07:38:06;11.87;;;7.77;;
56770;SDS011;42641;59.794;17.616;2024-02-26T07:40:32;11.63;;;7.47;;
56770;SDS011;42641;59.794;17.616;2024-02-26T07:42:58;11.27;;;7.60;;
56770;SDS011;42641;59.794;17.616;2024-02-26T07:45:25;12.70;;;8.63;;
56770;SDS011;42641;59.794;17.616;2024-02-26T07:47:51;15.43;;;9.30;;
56770;SDS011;42641;59.794;17.616;2024-02-26T07:50:17;11.20;;;8.53;;
56770;SDS011;42641;59.794;17.616;2024-02-26T07:52:45;14.13;;;8.03;;
56770;SDS011;42641;59.794;17.616;2024-02-26T07:55:11;14.67;;;8.87;;
56770;SDS011;42641;59.794;17.616;2024-02-26T07:57:41;10.87;;;8.17;;
56770;SDS011;42641;59.794;17.616;2024-02-26T08:00:08;11.53;;;8.60;;
56770;SDS011;42641;59.794;17.616;2024-02-26T08:02:38;13.47;;;8.90;;
56770;SDS011;42641;59.794;17.616;2024-02-26T08:05:05;11.03;;;7.07;;
56770;SDS011;42641;59.794;17.616;2024-02-26T08:07:31;8.33;;;6.97;;
56770;SDS011;42641;59.794;17.616;2024-02-26T08:09:58;9.37;;;6.90;;
56770;SDS011;42641;59.794;17.616;2024-02-26T08:12:24;7.47;;;6.13;;
56770;SDS011;42641;59.794;17.616;2024-02-26T08:14:50;10.10;;;6.87;;
56770;SDS011;42641;59.794;17.616;2024-02-26T08:17:17;7.50;;;6.33;;
56770;SDS011;42641;59.794;17.616;2024-02-26T08:19:43;8.73;;;6.57;;
56770;SDS011;42641;59.794;17.616;2024-02-26T08:22:09;8.93;;;7.27;;
56770;SDS011;42641;59.794;17.616;2024-02-26T08:24:42;9.13;;;6.27;;
56770;SDS011;42641;59.794;17.616;2024-02-26T08:27:08;7.93;;;7.03;;
56770;SDS011;42641;59.794;17.616;2024-02-26T08:29:34;6.83;;;6.00;;
56770;SDS011;42641;59.794;17.616;2024-02-26T08:32:01;12.17;;;7.20;;
56770;SDS011;42641;59.794;17.616;2024-02-26T08:34:27;10.70;;;7.30;;
56770;SDS011;42641;59.794;17.616;2024-02-26T08:36:54;9.17;;;7.17;;
56770;SDS011;42641;59.794;17.616;2024-02-26T08:39:20;10.93;;;7.27;;
56770;SDS011;42641;59.794;17.616;2024-02-26T08:41:47;10.67;;;7.57;;
56770;SDS011;42641;59.794;17.616;2024-02-26T08:44:13;9.47;;;7.30;;
56770;SDS011;42641;59.794;17.616;2024-02-26T08:46:39;9.07;;;6.77;;
56770;SDS011;42641;59.794;17.616;2024-02-26T08:49:05;7.10;;;6.10;;
56770;SDS011;42641;59.794;17.616;2024-02-26T08:51:32;7.63;;;6.80;;
56770;SDS011;42641;59.794;17.616;2024-02-26T08:53:58;9.07;;;7.40;;
56770;SDS011;42641;59.794;17.616;2024-02-26T08:56:25;7.63;;;5.70;;
56770;SDS011;42641;59.794;17.616;2024-02-26T08:58:51;7.87;;;6.50;;
56770;SDS011;42641;59.794;17.616;2024-02-26T09:01:19;9.20;;;7.33;;
56770;SDS011;42641;59.794;17.616;2024-02-26T09:03:45;7.60;;;6.17;;
56770;SDS011;42641;59.794;17.616;2024-02-26T09:06:14;7.93;;;6.70;;
56770;SDS011;42641;59.794;17.616;2024-02-26T09:08:41;10.43;;;7.20;;
56770;SDS011;42641;59.794;17.616;2024-02-26T09:11:07;9.20;;;6.87;;
56770;SDS011;42641;59.794;17.616;2024-02-26T09:13:36;10.80;;;8.13;;
56770;SDS011;42641;59.794;17.616;2024-02-26T09:16:02;9.63;;;7.87;;
56770;SDS011;42641;59.794;17.616;2024-02-26T09:18:28;8.20;;;7.40;;
56770;SDS011;42641;59.794;17.616;2024-02-26T09:20:55;10.73;;;7.90;;
56770;SDS011;42641;59.794;17.616;2024-02-26T09:23:21;9.87;;;7.20;;
56770;SDS011;42641;59.794;17.616;2024-02-26T09:25:48;9.90;;;7.27;;
56770;SDS011;42641;59.794;17.616;2024-02-26T09:28:14;9.57;;;7.20;;
56770;SDS011;42641;59.794;17.616;2024-02-26T09:30:43;8.90;;;7.30;;
56770;SDS011;42641;59.794;17.616;2024-02-26T09:33:10;8.70;;;7.00;;
56770;SDS011;42641;59.794;17.616;2024-02-26T09:35:37;7.03;;;5.97;;
56770;SDS011;42641;59.794;17.616;2024-02-26T09:38:03;9.30;;;7.37;;
56770;SDS011;42641;59.794;17.616;2024-02-26T09:40:30;10.60;;;8.30;;
56770;SDS011;42641;59.794;17.616;2024-02-26T09:42:59;9.30;;;8.07;;
56770;SDS011;42641;59.794;17.616;2024-02-26T09:45:27;8.73;;;7.70;;
56770;SDS011;42641;59.794;17.616;2024-02-26T09:47:56;13.53;;;8.80;;
56770;SDS011;42641;59.794;17.616;2024-02-26T09:50:23;11.20;;;7.63;;
56770;SDS011;42641;59.794;17.616;2024-02-26T09:52:50;10.60;;;8.13;;
56770;SDS011;42641;59.794;17.616;2024-02-26T09:55:18;11.87;;;7.97;;
56770;SDS011;42641;59.794;17.616;2024-02-26T09:57:45;11.60;;;8.53;;
56770;SDS011;42641;59.794;17.616;2024-02-26T10:00:15;10.60;;;7.30;;
56770;SDS011;42641;59.794;17.616;2024-02-26T10:02:48;12.30;;;8.03;;
56770;SDS011;42641;59.794;17.616;2024-02-26T10:05:16;8.47;;;7.23;;
56770;SDS011;42641;59.794;17.616;2024-02-26T10:07:46;10.37;;;7.73;;
56770;SDS011;42641;59.794;17.616;2024-02-26T10:10:13;11.27;;;8.97;;
56770;SDS011;42641;59.794;17.616;2024-02-26T10:12:40;11.43;;;8.33;;
56770;SDS011;42641;59.794;17.616;2024-02-26T10:15:06;10.40;;;8.63;;
56770;SDS011;42641;59.794;17.616;2024-02-26T10:17:33;10.57;;;9.03;;
56770;SDS011;42641;59.794;17.616;2024-02-26T10:20:12;9.93;;;8.17;;
56770;SDS011;42641;59.794;17.616;2024-02-26T10:22:49;9.70;;;7.93;;
56770;SDS011;42641;59.794;17.616;2024-02-26T10:25:16;8.97;;;6.97;;
56770;SDS011;42641;59.794;17.616;2024-02-26T10:27:42;9.43;;;7.87;;
56770;SDS011;42641;59.794;17.616;2024-02-26T10:30:21;11.93;;;8.13;;
56770;SDS011;42641;59.794;17.616;2024-02-26T10:32:49;11.93;;;8.30;;
56770;SDS011;42641;59.794;17.616;2024-02-26T10:35:15;9.80;;;7.57;;
56770;SDS011;42641;59.794;17.616;2024-02-26T10:37:46;9.83;;;7.37;;
56770;SDS011;42641;59.794;17.616;2024-02-26T10:40:13;8.97;;;7.70;;
56770;SDS011;42641;59.794;17.616;2024-02-26T10:42:41;14.10;;;7.90;;
56770;SDS011;42641;59.794;17.616;2024-02-26T10:45:08;11.17;;;7.60;;
56770;SDS011;42641;59.794;17.616;2024-02-26T10:47:36;12.83;;;8.03;;
56770;SDS011;42641;59.794;17.616;2024-02-26T10:50:03;7.90;;;6.83;;
56770;SDS011;42641;59.794;17.616;2024-02-26T10:52:34;11.00;;;7.87;;
56770;SDS011;42641;59.794;17.616;2024-02-26T10:55:03;8.37;;;7.23;;
56770;SDS011;42641;59.794;17.616;2024-02-26T10:57:36;10.33;;;7.77;;
56770;SDS011;42641;59.794;17.616;2024-02-26T11:00:05;9.20;;;7.03;;
56770;SDS011;42641;59.794;17.616;2024-02-26T11:02:33;11.40;;;7.50;;
56770;SDS011;42641;59.794;17.616;2024-02-26T11:05:04;9.33;;;7.63;;
56770;SDS011;42641;59.794;17.616;2024-02-26T11:07:32;10.13;;;7.83;;
56770;SDS011;42641;59.794;17.616;2024-02-26T11:10:02;13.43;;;8.07;;
56770;SDS011;42641;59.794;17.616;2024-02-26T11:12:31;11.80;;;8.03;;
56770;SDS011;42641;59.794;17.616;2024-02-26T11:15:01;13.60;;;8.93;;
56770;SDS011;42641;59.794;17.616;2024-02-26T11:17:28;13.33;;;8.80;;
56770;SDS011;42641;59.794;17.616;2024-02-26T11:19:58;11.00;;;7.87;;
56770;SDS011;42641;59.794;17.616;2024-02-26T11:22:25;11.23;;;8.67;;
56770;SDS011;42641;59.794;17.616;2024-02-26T11:24:52;10.17;;;8.40;;
56770;SDS011;42641;59.794;17.616;2024-02-26T11:27:22;12.13;;;9.00;;
56770;SDS011;42641;59.794;17.616;2024-02-26T11:29:52;12.87;;;8.53;;
56770;SDS011;42641;59.794;17.616;2024-02-26T11:32:20;13.40;;;9.73;;
56770;SDS011;42641;59.794;17.616;2024-02-26T11:34:47;13.20;;;9.30;;
56770;SDS011;42641;59.794;17.616;2024-02-26T11:37:15;10.57;;;9.40;;
56770;SDS011;42641;59.794;17.616;2024-02-26T11:39:43;9.43;;;8.47;;
56770;SDS011;42641;59.794;17.616;2024-02-26T11:42:13;10.80;;;9.10;;
56770;SDS011;42641;59.794;17.616;2024-02-26T11:44:41;11.40;;;8.83;;
56770;SDS011;42641;59.794;17.616;2024-02-26T11:47:14;9.93;;;8.70;;
56770;SDS011;42641;59.794;17.616;2024-02-26T11:49:47;14.37;;;8.90;;
56770;SDS011;42641;59.794;17.616;2024-02-26T11:52:15;9.60;;;8.00;;
56770;SDS011;42641;59.794;17.616;2024-02-26T11:54:51;9.03;;;7.43;;
56770;SDS011;42641;59.794;17.616;2024-02-26T11:57:26;11.13;;;7.80;;
56770;SDS011;42641;59.794;17.616;2024-02-26T11:59:56;10.53;;;9.00;;
56770;SDS011;42641;59.794;17.616;2024-02-26T12:02:51;9.20;;;7.60;;
56770;SDS011;42641;59.794;17.616;2024-02-26T12:05:27;10.33;;;7.90;;
56770;SDS011;42641;59.794;17.616;2024-02-26T12:08:04;11.13;;;8.00;;
56770;SDS011;42641;59.794;17.616;2024-02-26T12:10:33;12.90;;;8.53;;
56770;SDS011;42641;59.794;17.616;2024-02-26T12:13:08;10.63;;;8.10;;
56770;SDS011;42641;59.794;17.616;2024-02-26T12:15:39;9.83;;;8.33;;
56770;SDS011;42641;59.794;17.616;2024-02-26T12:18:08;9.90;;;8.07;;
56770;SDS011;42641;59.794;17.616;2024-02-26T12:20:38;9.47;;;8.40;;
56770;SDS011;42641;59.794;17.616;2024-02-26T12:23:05;10.60;;;8.33;;
56770;SDS011;42641;59.794;17.616;2024-02-26T12:25:31;9.47;;;8.43;;
56770;SDS011;42641;59.794;17.616;2024-02-26T12:27:59;9.77;;;8.10;;
56770;SDS011;42641;59.794;17.616;2024-02-26T12:30:25;12.27;;;9.50;;
56770;SDS011;42641;59.794;17.616;2024-02-26T12:33:00;10.73;;;8.93;;
56770;SDS011;42641;59.794;17.616;2024-02-26T12:35:27;10.53;;;8.87;;
56770;SDS011;42641;59.794;17.616;2024-02-26T12:37:54;10.80;;;9.00;;
56770;SDS011;42641;59.794;17.616;2024-02-26T12:40:21;9.77;;;8.67;;
56770;SDS011;42641;59.794;17.616;2024-02-26T12:42:47;11.30;;;9.07;;
56770;SDS011;42641;59.794;17.616;2024-02-26T12:45:14;9.97;;;8.67;;
56770;SDS011;42641;59.794;17.616;2024-02-26T12:47:45;12.83;;;9.20;;
56770;SDS011;42641;59.794;17.616;2024-02-26T12:50:11;10.33;;;8.50;;
56770;SDS011;42641;59.794;17.616;2024-02-26T12:52:45;10.50;;;9.30;;
56770;SDS011;42641;59.794;17.616;2024-02-26T12:55:16;11.53;;;9.40;;
56770;SDS011;42641;59.794;17.616;2024-02-26T12:57:44;12.43;;;9.83;;
56770;SDS011;42641;59.794;17.616;2024-02-26T13:00:12;11.67;;;10.40;;
56770;SDS011;42641;59.794;17.616;2024-02-26T13:02:42;10.67;;;9.53;;
56770;SDS011;42641;59.794;17.616;2024-02-26T13:05:10;13.43;;;9.77;;
56770;SDS011;42641;59.794;17.616;2024-02-26T13:07:42;10.97;;;9.37;;
56770;SDS011;42641;59.794;17.616;2024-02-26T13:10:16;11.93;;;9.87;;
56770;SDS011;42641;59.794;17.616;2024-02-26T13:15:14;13.10;;;9.60;;
56770;SDS011;42641;59.794;17.616;2024-02-26T13:17:44;12.43;;;8.60;;
56770;SDS011;42641;59.794;17.616;2024-02-26T13:20:12;13.43;;;9.20;;
56770;SDS011;42641;59.794;17.616;2024-02-26T13:22:40;11.03;;;8.83;;
56770;SDS011;42641;59.794;17.616;2024-02-26T13:25:07;12.47;;;9.33;;
56770;SDS011;42641;59.794;17.616;2024-02-26T13:27:34;10.23;;;8.00;;
56770;SDS011;42641;59.794;17.616;2024-02-26T13:30:10;11.80;;;8.83;;
56770;SDS011;42641;59.794;17.616;2024-02-26T13:32:41;9.93;;;8.33;;
56770;SDS011;42641;59.794;17.616;2024-02-26T13:35:09;10.37;;;8.27;;
56770;SDS011;42641;59.794;17.616;2024-02-26T13:37:38;12.43;;;8.70;;
56770;SDS011;42641;59.794;17.616;2024-02-26T13:40:05;12.00;;;8.77;;
56770;SDS011;42641;59.794;17.616;2024-02-26T13:42:36;8.83;;;7.40;;
56770;SDS011;42641;59.794;17.616;2024-02-26T13:45:03;9.10;;;7.40;;
56770;SDS011;42641;59.794;17.616;2024-02-26T13:47:34;8.27;;;7.07;;
56770;SDS011;42641;59.794;17.616;2024-02-26T13:50:01;8.93;;;7.03;;
56770;SDS011;42641;59.794;17.616;2024-02-26T13:52:27;9.00;;;6.67;;
56770;SDS011;42641;59.794;17.616;2024-02-26T13:54:54;11.03;;;6.90;;
56770;SDS011;42641;59.794;17.616;2024-02-26T13:57:20;8.40;;;6.67;;
56770;SDS011;42641;59.794;17.616;2024-02-26T13:59:47;7.87;;;6.80;;
56770;SDS011;42641;59.794;17.616;2024-02-26T14:02:13;8.67;;;6.77;;
56770;SDS011;42641;59.794;17.616;2024-02-26T14:04:40;7.10;;;6.37;;
56770;SDS011;42641;59.794;17.616;2024-02-26T14:07:06;9.50;;;5.87;;
56770;SDS011;42641;59.794;17.616;2024-02-26T14:09:33;8.33;;;6.67;;
56770;SDS011;42641;59.794;17.616;2024-02-26T14:12:00;10.10;;;6.67;;
56770;SDS011;42641;59.794;17.616;2024-02-26T14:14:30;7.20;;;6.47;;
56770;SDS011;42641;59.794;17.616;2024-02-26T14:16:58;9.00;;;6.00;;
56770;SDS011;42641;59.794;17.616;2024-02-26T14:19:25;7.03;;;6.07;;
56770;SDS011;42641;59.794;17.616;2024-02-26T14:21:52;9.67;;;6.77;;
56770;SDS011;42641;59.794;17.616;2024-02-26T14:24:18;8.77;;;6.77;;
56770;SDS011;42641;59.794;17.616;2024-02-26T14:26:45;7.83;;;6.57;;